Time;durP1;ratioP1;P1;durP2;ratioP2;P2;SDS_P1;SDS_P2;PMS_P1;PMS_P2;Temp;Humidity;BMP_temperature;BMP_pressure;BME280_temperature;BME280_humidity;BME280_pressure;Samples;Min_cycle;Max_cycle;Signal;HPM_P1;HPM_P2
2021/03/24 00:03:00;;;;;;;14.57;9.23;;;0.80;93.50;;;;;;6273402;28;20140;-77
2021/03/24 00:06:01;;;;;;;17.47;11.83;;;0.80;93.60;;;;;;6274706;28;20049;-78
2021/03/24 00:09:05;;;;;;;14.10;9.73;;;0.80;93.60;;;;;;6274073;28;20195;-77
2021/03/24 00:12:08;;;;;;;16.97;11.73;;;0.80;93.70;;;;;;6271349;28;20144;-78
2021/03/24 00:15:12;;;;;;;17.43;11.37;;;0.80;93.70;;;;;;6251461;28;20053;-78
2021/03/24 00:18:14;;;;;;;17.90;12.03;;;0.70;93.70;;;;;;6211344;28;20490;-78
2021/03/24 00:21:15;;;;;;;15.43;11.77;;;0.70;93.90;;;;;;6246279;28;20114;-78
2021/03/24 00:24:16;;;;;;;15.97;11.00;;;0.70;94.10;;;;;;6248208;28;20042;-77
2021/03/24 00:27:19;;;;;;;17.27;13.20;;;0.60;94.20;;;;;;6250406;28;20046;-77
2021/03/24 00:30:23;;;;;;;19.43;11.10;;;0.60;94.30;;;;;;6250775;28;20084;-77
2021/03/24 00:33:26;;;;;;;18.60;12.03;;;0.60;94.40;;;;;;6250119;28;20046;-78
2021/03/24 00:36:27;;;;;;;18.80;12.10;;;0.60;94.50;;;;;;6250462;28;20164;-78
2021/03/24 00:39:29;;;;;;;18.43;10.53;;;0.50;94.60;;;;;;6250461;28;20128;-78
2021/03/24 00:42:31;;;;;;;20.73;10.33;;;0.60;94.60;;;;;;6250605;28;20056;-78
2021/03/24 00:45:33;;;;;;;18.50;10.50;;;0.50;94.60;;;;;;6250270;28;20053;-78
2021/03/24 00:48:35;;;;;;;20.03;10.50;;;0.50;94.70;;;;;;6250767;28;20042;-78
2021/03/24 00:51:36;;;;;;;18.80;10.50;;;0.50;94.60;;;;;;6251011;28;20129;-78
2021/03/24 00:54:38;;;;;;;14.70;9.17;;;0.40;94.70;;;;;;6250792;28;20057;-78
2021/03/24 00:57:40;;;;;;;14.17;8.60;;;0.40;94.90;;;;;;6250756;28;20052;-78
2021/03/24 01:00:42;;;;;;;14.67;7.83;;;0.40;95.10;;;;;;6255017;28;20060;-77
2021/03/24 01:03:44;;;;;;;13.07;9.00;;;0.40;95.00;;;;;;6267735;28;20546;-77
2021/03/24 01:06:45;;;;;;;19.00;10.73;;;0.30;95.10;;;;;;6251298;28;20081;-77
2021/03/24 01:09:47;;;;;;;16.17;10.07;;;0.30;95.10;;;;;;6250708;28;20128;-78
2021/03/24 01:12:49;;;;;;;13.23;9.17;;;0.20;95.10;;;;;;6251940;28;20515;-78
2021/03/24 01:15:51;;;;;;;17.27;9.83;;;0.20;95.30;;;;;;6258700;28;20049;-77
2021/03/24 01:18:52;;;;;;;12.07;9.53;;;0.20;95.50;;;;;;6257378;28;20049;-77
2021/03/24 01:21:53;;;;;;;17.67;11.13;;;0.20;95.50;;;;;;6253543;28;20057;-78
2021/03/24 01:24:55;;;;;;;16.27;9.70;;;0.20;95.40;;;;;;6252186;28;20053;-78
2021/03/24 01:27:57;;;;;;;13.80;8.57;;;0.20;95.70;;;;;;6253063;28;20511;-78
2021/03/24 01:31:00;;;;;;;15.33;7.90;;;0.20;95.60;;;;;;6254473;28;20095;-78
2021/03/24 01:34:02;;;;;;;17.60;9.10;;;0.20;95.60;;;;;;6255746;28;20135;-78
2021/03/24 01:37:04;;;;;;;13.63;8.80;;;0.10;95.50;;;;;;6253446;28;20069;-78
2021/03/24 01:40:08;;;;;;;15.63;8.80;;;0.10;95.60;;;;;;6254998;28;20060;-78
2021/03/24 01:43:20;;;;;;;13.40;9.40;;;0.10;95.70;;;;;;6253954;28;20078;-78
2021/03/24 01:46:42;;;;;;;13.87;10.40;;;0.10;95.80;;;;;;6254536;28;20141;-78
2021/03/24 01:49:44;;;;;;;12.37;7.70;;;0.00;95.60;;;;;;6249839;28;20072;-77
2021/03/24 01:52:45;;;;;;;17.83;12.17;;;-0.10;95.70;;;;;;6249736;28;20131;-78
2021/03/24 01:55:47;;;;;;;12.50;8.27;;;-0.10;95.80;;;;;;6249188;28;20574;-77
2021/03/24 01:58:49;;;;;;;13.27;11.33;;;-0.10;95.90;;;;;;6250617;28;20140;-77
2021/03/24 02:01:51;;;;;;;12.33;10.20;;;-0.20;96.10;;;;;;6249674;28;20526;-77
2021/03/24 02:04:53;;;;;;;12.27;8.97;;;-0.20;96.20;;;;;;6250177;28;20132;-77
2021/03/24 02:08:00;;;;;;;12.13;8.07;;;-0.20;96.40;;;;;;6249476;28;20183;-78
2021/03/24 02:11:09;;;;;;;15.00;10.25;;;-0.30;96.60;;;;;;6250616;28;20053;-78
2021/03/24 02:14:16;;;;;;;14.07;9.27;;;-0.30;96.80;;;;;;6250072;28;20511;-77
2021/03/24 02:17:20;;;;;;;13.80;9.73;;;-0.30;96.70;;;;;;6249684;28;20180;-77
2021/03/24 02:20:27;;;;;;;14.57;9.87;;;-0.30;96.70;;;;;;6250997;28;20175;-78
2021/03/24 02:23:35;;;;;;;10.90;8.57;;;-0.30;96.80;;;;;;6251072;28;20124;-79
2021/03/24 02:26:41;;;;;;;13.93;9.47;;;-0.30;97.00;;;;;;6250942;28;20192;-78
2021/03/24 02:29:50;;;;;;;11.20;9.10;;;-0.30;97.10;;;;;;6252851;28;20080;-78
2021/03/24 02:32:56;;;;;;;13.57;9.07;;;-0.20;97.00;;;;;;6253301;28;20136;-78
2021/03/24 02:36:01;;;;;;;14.07;9.73;;;-0.20;97.00;;;;;;6251900;28;20068;-78
2021/03/24 02:39:07;;;;;;;12.97;10.03;;;-0.30;97.00;;;;;;6252702;28;20053;-78
2021/03/24 02:42:12;;;;;;;13.47;9.23;;;-0.30;96.90;;;;;;6254509;28;20057;-78
2021/03/24 02:45:18;;;;;;;16.57;8.83;;;-0.40;96.90;;;;;;6251515;28;20092;-78
2021/03/24 02:48:23;;;;;;;13.83;11.40;;;-0.40;97.10;;;;;;6252630;28;20081;-78
2021/03/24 02:51:25;;;;;;;19.20;11.13;;;-0.40;97.20;;;;;;6251699;28;20049;-78
2021/03/24 02:54:30;;;;;;;13.03;9.70;;;-0.50;97.50;;;;;;6252940;28;20089;-78
2021/03/24 02:57:32;;;;;;;15.53;9.40;;;-0.40;97.60;;;;;;6250751;28;20052;-77
2021/03/24 03:00:34;;;;;;;13.93;9.57;;;-0.40;97.50;;;;;;6251013;28;20049;-78
2021/03/24 03:03:39;;;;;;;13.70;10.07;;;-0.40;97.60;;;;;;6250259;28;20079;-78
2021/03/24 03:06:42;;;;;;;12.77;9.47;;;-0.40;97.50;;;;;;6251593;28;20077;-78
2021/03/24 03:09:49;;;;;;;13.50;9.97;;;-0.50;97.50;;;;;;6251725;28;20124;-78
2021/03/24 03:12:55;;;;;;;14.10;10.77;;;-0.60;97.50;;;;;;6250996;28;20075;-77
2021/03/24 03:16:04;;;;;;;12.50;9.17;;;-0.60;97.70;;;;;;6254860;28;20132;-78
2021/03/24 03:19:09;;;;;;;16.10;10.10;;;-0.60;97.80;;;;;;6256971;28;20053;-78
2021/03/24 03:22:16;;;;;;;16.33;11.37;;;-0.70;97.80;;;;;;6256341;28;20045;-78
2021/03/24 03:25:20;;;;;;;12.87;9.57;;;-0.70;97.80;;;;;;6255239;28;20124;-79
2021/03/24 03:28:22;;;;;;;13.77;9.83;;;-0.70;97.90;;;;;;6255301;28;20128;-79
2021/03/24 03:31:30;;;;;;;12.00;8.67;;;-0.70;98.00;;;;;;6255771;28;20580;-79
2021/03/24 03:34:34;;;;;;;16.87;9.63;;;-0.70;98.20;;;;;;6253327;28;20129;-79
2021/03/24 03:37:36;;;;;;;13.70;8.17;;;-0.70;98.40;;;;;;6254984;28;20130;-79
2021/03/24 03:40:38;;;;;;;13.20;9.93;;;-0.60;98.50;;;;;;6256351;28;20129;-79
2021/03/24 03:43:41;;;;;;;13.87;10.13;;;-0.60;98.30;;;;;;6253706;28;20495;-80
2021/03/24 03:46:48;;;;;;;15.30;9.00;;;-0.60;98.30;;;;;;6257179;28;20059;-80
2021/03/24 03:49:51;;;;;;;12.10;8.27;;;-0.70;98.30;;;;;;6255325;28;20045;-80
2021/03/24 03:53:04;;;;;;;16.03;9.57;;;-0.70;98.20;;;;;;6254315;28;20049;-80
2021/03/24 03:56:11;;;;;;;12.57;8.80;;;-0.70;98.20;;;;;;6255637;28;20076;-80
2021/03/24 03:59:17;;;;;;;16.83;10.33;;;-0.70;98.30;;;;;;6256067;28;20053;-78
2021/03/24 04:02:26;;;;;;;15.90;9.67;;;-0.70;98.40;;;;;;6250738;28;20124;-80
2021/03/24 04:05:32;;;;;;;13.57;10.33;;;-0.70;98.30;;;;;;6249560;28;20132;-78
2021/03/24 04:08:35;;;;;;;15.10;10.67;;;-0.70;98.20;;;;;;6248868;28;20067;-78
2021/03/24 04:11:41;;;;;;;14.67;9.37;;;-0.70;98.10;;;;;;6250143;28;20085;-79
2021/03/24 04:14:44;;;;;;;15.20;10.80;;;-0.70;98.20;;;;;;6250356;28;20103;-78
2021/03/24 04:17:49;;;;;;;18.27;9.40;;;-0.70;98.30;;;;;;6250284;28;20056;-78
2021/03/24 04:20:52;;;;;;;15.87;9.67;;;-0.70;98.20;;;;;;6247028;28;20087;-76
2021/03/24 04:23:59;;;;;;;12.17;9.47;;;-0.80;98.20;;;;;;6247371;28;20720;-77
2021/03/24 04:27:02;;;;;;;11.77;8.05;;;-0.90;98.40;;;;;;6248060;28;20046;-77
2021/03/24 04:30:08;;;;;;;10.93;6.77;;;-0.90;98.60;;;;;;6248312;28;20512;-78
2021/03/24 04:33:10;;;;;;;16.77;10.90;;;-0.80;98.60;;;;;;6247379;28;20183;-78
2021/03/24 04:36:18;;;;;;;14.30;8.10;;;-0.90;98.50;;;;;;6247275;28;20077;-77
2021/03/24 04:39:27;;;;;;;13.50;8.23;;;-0.90;98.50;;;;;;6247319;28;20562;-77
2021/03/24 04:42:36;;;;;;;12.77;9.27;;;-0.80;98.60;;;;;;6248205;28;20105;-78
2021/03/24 04:45:44;;;;;;;11.77;8.17;;;-0.80;98.40;;;;;;6246912;28;20642;-77
2021/03/24 04:48:49;;;;;;;14.30;8.35;;;-0.80;98.20;;;;;;6252292;28;20049;-78
2021/03/24 04:51:53;;;;;;;10.17;6.97;;;-0.80;98.10;;;;;;6252756;28;20078;-77
2021/03/24 04:54:58;;;;;;;12.73;9.27;;;-0.90;98.00;;;;;;6251671;28;20049;-76
2021/03/24 04:58:02;;;;;;;16.00;8.93;;;-0.90;98.20;;;;;;6253617;28;20061;-76
2021/03/24 05:01:10;;;;;;;10.33;7.40;;;-0.90;98.40;;;;;;6255349;28;20208;-77
2021/03/24 05:04:21;;;;;;;13.75;9.20;;;-0.90;98.10;;;;;;6256441;28;20555;-78
2021/03/24 05:07:32;;;;;;;10.37;7.27;;;-0.90;98.10;;;;;;6256681;28;20061;-78
2021/03/24 05:10:34;;;;;;;13.00;9.27;;;-0.90;98.00;;;;;;6261804;28;20049;-78
2021/03/24 05:13:41;;;;;;;14.13;8.73;;;-0.90;97.90;;;;;;6269904;28;20050;-79
2021/03/24 05:16:45;;;;;;;12.13;7.57;;;-0.80;97.90;;;;;;6253133;28;20084;-78
2021/03/24 05:19:48;;;;;;;11.03;7.97;;;-0.90;98.00;;;;;;6252736;28;20102;-77
2021/03/24 05:22:51;;;;;;;11.20;7.60;;;-0.80;97.80;;;;;;6252339;28;20531;-78
2021/03/24 05:25:57;;;;;;;16.87;9.00;;;-0.80;97.70;;;;;;6251089;28;20715;-78
2021/03/24 05:29:03;;;;;;;13.93;9.57;;;-0.80;97.60;;;;;;6251390;28;20055;-78
2021/03/24 05:32:08;;;;;;;17.57;8.63;;;-0.80;97.60;;;;;;6250850;28;20069;-78
2021/03/24 05:35:25;;;;;;;14.10;11.60;;;-0.80;97.60;;;;;;6250786;28;20147;-77
2021/03/24 05:38:33;;;;;;;18.77;12.73;;;-0.80;97.50;;;;;;6251792;28;20533;-78
2021/03/24 05:41:39;;;;;;;20.63;16.80;;;-0.70;97.50;;;;;;6251071;28;20056;-76
2021/03/24 05:45:14;;;;;;;14.30;10.33;;;-0.70;97.30;;;;;;6251277;28;20069;-78
2021/03/24 05:48:53;;;;;;;16.10;9.07;;;-0.60;97.30;;;;;;6250820;28;20434;-77
2021/03/24 05:52:15;;;;;;;14.70;8.53;;;-0.40;97.00;;;;;;6176643;28;20070;-78
2021/03/24 05:55:29;;;;;;;13.90;9.27;;;-0.40;96.80;;;;;;6250064;28;20050;-78
2021/03/24 05:58:46;;;;;;;16.57;9.83;;;-0.30;96.60;;;;;;6251472;28;20495;-78
2021/03/24 06:01:54;;;;;;;15.97;10.33;;;-0.20;96.50;;;;;;6251120;28;20041;-78
2021/03/24 06:04:59;;;;;;;17.40;9.98;;;-0.10;96.40;;;;;;6250620;28;20068;-79
2021/03/24 06:08:54;;;;;;;12.23;7.93;;;0.00;96.30;;;;;;6250291;28;20084;-78
2021/03/24 06:12:16;;;;;;;14.80;8.30;;;0.10;96.10;;;;;;6249626;28;20712;-78
2021/03/24 06:15:43;;;;;;;15.03;9.77;;;0.20;95.90;;;;;;6249915;28;20077;-75
2021/03/24 06:18:58;;;;;;;18.23;9.37;;;0.40;95.70;;;;;;6248751;28;20085;-76
2021/03/24 06:22:10;;;;;;;15.73;8.30;;;0.50;95.90;;;;;;6250952;28;20527;-78
2021/03/24 06:25:33;;;;;;;16.37;9.57;;;0.80;96.00;;;;;;6249829;28;20196;-78
2021/03/24 06:28:41;;;;;;;14.97;8.80;;;1.00;95.70;;;;;;6250697;28;20073;-77
2021/03/24 06:31:50;;;;;;;;;;;1.20;95.40;;;;;;6250261;28;20072;-77
2021/03/24 06:35:08;;;;;;;13.17;9.20;;;1.40;95.40;;;;;;6250732;28;20334;-77
2021/03/24 06:38:29;;;;;;;14.80;7.72;;;1.70;94.70;;;;;;6251216;28;20160;-78
2021/03/24 06:41:51;;;;;;;16.10;10.03;;;1.90;94.80;;;;;;6250835;28;20124;-78
2021/03/24 06:45:23;;;;;;;11.87;7.73;;;2.10;94.30;;;;;;6250430;28;20107;-78
2021/03/24 06:48:49;;;;;;;13.63;8.47;;;2.30;94.10;;;;;;6251026;28;20117;-78
2021/03/24 06:52:38;;;;;;;15.30;9.00;;;2.40;93.40;;;;;;6251064;28;20046;-78
2021/03/24 06:56:06;;;;;;;11.53;7.20;;;2.50;93.20;;;;;;6250542;28;20115;-78
2021/03/24 06:59:39;;;;;;;16.88;7.60;;;2.60;93.00;;;;;;6250363;28;20563;-78
2021/03/24 07:03:21;;;;;;;23.77;8.73;;;2.90;92.90;;;;;;6251004;28;20129;-78
2021/03/24 07:06:49;;;;;;;15.87;8.83;;;3.10;92.80;;;;;;6272805;28;20388;-78
2021/03/24 07:09:59;;;;;;;12.43;8.90;;;3.40;92.60;;;;;;6275297;28;20068;-78
2021/03/24 07:13:36;;;;;;;12.63;7.47;;;3.60;92.30;;;;;;6275602;28;20056;-79
2021/03/24 07:16:50;;;;;;;13.50;9.23;;;3.80;92.00;;;;;;6277644;28;20497;-78
2021/03/24 07:20:32;;;;;;;13.88;8.93;;;4.00;91.60;;;;;;6277275;28;20087;-77
2021/03/24 07:24:05;;;;;;;15.48;10.70;;;4.40;91.10;;;;;;6273497;28;20120;-78
2021/03/24 07:27:23;;;;;;;13.77;10.60;;;4.70;90.50;;;;;;6247353;28;20127;-78
2021/03/24 07:30:34;;;;;;;13.63;9.63;;;5.00;90.40;;;;;;6275607;28;20073;-78
2021/03/24 07:33:43;;;;;;;15.10;10.73;;;5.20;88.80;;;;;;6274421;28;20071;-76
2021/03/24 07:37:19;;;;;;;17.58;11.65;;;5.50;87.90;;;;;;6273604;28;20148;-75
2021/03/24 07:41:11;;;;;;;14.35;9.77;;;5.80;86.90;;;;;;6272590;28;20052;-78
2021/03/24 07:44:34;;;;;;;11.75;8.75;;;6.20;85.30;;;;;;6221429;28;20517;-78
2021/03/24 07:48:06;;;;;;;19.02;10.95;;;6.60;83.50;;;;;;6273523;28;20128;-77
2021/03/24 07:51:16;;;;;;;16.90;10.82;;;6.90;82.00;;;;;;6273580;28;20081;-78
2021/03/24 07:54:22;;;;;;;20.50;13.05;;;7.10;80.20;;;;;;6274379;28;20052;-78
2021/03/24 07:57:32;;;;;;;20.33;13.65;;;7.50;79.10;;;;;;6273824;28;20053;-77
2021/03/24 08:00:43;;;;;;;18.90;11.45;;;7.80;78.10;;;;;;6273851;28;20052;-78
2021/03/24 08:03:55;;;;;;;19.20;13.75;;;8.10;76.60;;;;;;6273508;28;20072;-78
2021/03/24 08:07:13;;;;;;;19.02;13.07;;;8.40;75.30;;;;;;6274713;28;20136;-78
2021/03/24 08:10:25;;;;;;;21.60;13.13;;;8.60;74.40;;;;;;6275207;28;20072;-78
2021/03/24 08:13:42;;;;;;;16.50;13.18;;;9.00;73.50;;;;;;6273673;28;20049;-78
2021/03/24 08:16:59;;;;;;;18.48;12.50;;;9.20;71.80;;;;;;6272176;28;20079;-78
2021/03/24 08:20:22;;;;;;;16.23;13.02;;;9.50;70.60;;;;;;6272243;28;20049;-78
2021/03/24 08:24:12;;;;;;;14.02;12.02;;;9.70;69.80;;;;;;6277315;28;20064;-77
2021/03/24 08:27:20;;;;;;;18.80;11.70;;;10.20;71.70;;;;;;6271547;28;20095;-77
2021/03/24 08:30:25;;;;;;;19.20;11.30;;;11.00;68.20;;;;;;6278389;28;20526;-78
2021/03/24 08:33:49;;;;;;;12.23;10.88;;;11.10;67.60;;;;;;6276795;28;20152;-78
2021/03/24 08:37:19;;;;;;;14.50;12.57;;;11.50;65.50;;;;;;6277690;28;20045;-78
2021/03/24 08:40:46;;;;;;;15.77;11.48;;;11.60;63.30;;;;;;6272455;28;20068;-77
2021/03/24 08:44:02;;;;;;;16.85;12.27;;;11.80;63.20;;;;;;6277936;28;20129;-77
2021/03/24 08:47:12;;;;;;;12.63;10.18;;;12.00;62.40;;;;;;6278296;28;20064;-77
2021/03/24 08:50:16;;;;;;;13.55;10.35;;;12.20;63.10;;;;;;6277859;28;20140;-77
2021/03/24 08:53:31;;;;;;;15.98;10.73;;;12.60;60.40;;;;;;6277305;28;20387;-78
2021/03/24 08:56:41;;;;;;;12.18;10.05;;;12.90;59.50;;;;;;6282289;28;20116;-79
2021/03/24 08:59:49;;;;;;;10.55;8.82;;;13.10;59.40;;;;;;6277947;28;20068;-78
2021/03/24 09:03:03;;;;;;;13.60;10.82;;;13.20;59.30;;;;;;6280194;28;20105;-78
2021/03/24 09:06:12;;;;;;;15.77;10.93;;;13.30;57.90;;;;;;6281736;28;20124;-78
2021/03/24 09:09:27;;;;;;;13.02;10.80;;;13.20;57.90;;;;;;6278772;28;20132;-77
2021/03/24 09:12:33;;;;;;;16.00;10.48;;;13.20;56.70;;;;;;6276362;28;20041;-77
2021/03/24 09:15:40;;;;;;;17.00;11.52;;;13.10;56.80;;;;;;6279094;28;20124;-79
2021/03/24 09:18:44;;;;;;;11.88;10.50;;;13.20;56.70;;;;;;6283250;28;20056;-79
2021/03/24 09:21:56;;;;;;;15.32;9.98;;;13.20;56.60;;;;;;6282949;28;20048;-79
2021/03/24 09:25:09;;;;;;;12.82;11.20;;;13.50;56.60;;;;;;6280379;28;20064;-80
2021/03/24 09:28:47;;;;;;;12.52;9.57;;;13.70;55.30;;;;;;6279647;28;20072;-78
2021/03/24 09:32:11;;;;;;;12.00;9.23;;;13.90;55.40;;;;;;6278928;28;20103;-80
2021/03/24 09:35:36;;;;;;;16.17;9.70;;;14.30;54.50;;;;;;6281123;28;20178;-78
2021/03/24 09:38:41;;;;;;;13.23;8.45;;;14.50;54.10;;;;;;6281790;28;20411;-78
2021/03/24 09:41:46;;;;;;;14.07;9.50;;;14.60;52.30;;;;;;6281340;28;20065;-79
2021/03/24 09:45:05;;;;;;;12.65;9.30;;;14.40;52.80;;;;;;6280497;28;20049;-78
2021/03/24 09:48:10;;;;;;;14.45;8.68;;;14.50;52.50;;;;;;6277171;28;20053;-79
2021/03/24 09:51:14;;;;;;;13.88;11.27;;;14.50;52.20;;;;;;6276709;28;22448;-78
2021/03/24 09:54:19;;;;;;;12.35;9.68;;;14.60;52.90;;;;;;6280198;28;20142;-78
2021/03/24 09:57:25;;;;;;;15.30;10.20;;;14.90;52.80;;;;;;6279409;28;20045;-79
2021/03/24 10:00:30;;;;;;;19.65;12.38;;;15.30;52.20;;;;;;6278782;28;20049;-80
2021/03/24 10:03:39;;;;;;;16.45;10.98;;;15.50;51.40;;;;;;6279742;28;20060;-81
2021/03/24 10:06:59;;;;;;;11.20;9.32;;;15.60;51.00;;;;;;6280561;28;20147;-80
2021/03/24 10:10:08;;;;;;;15.65;12.00;;;15.70;51.10;;;;;;6280656;28;20049;-80
2021/03/24 10:13:19;;;;;;;11.63;9.68;;;15.90;51.10;;;;;;6278505;28;20047;-76
2021/03/24 10:16:27;;;;;;;10.00;8.85;;;16.00;50.40;;;;;;6279605;28;20128;-79
2021/03/24 10:19:33;;;;;;;11.60;8.52;;;16.00;49.80;;;;;;6284284;28;20091;-78
2021/03/24 10:22:38;;;;;;;12.90;10.00;;;16.00;49.60;;;;;;6285313;28;20052;-78
2021/03/24 10:25:42;;;;;;;10.32;8.38;;;16.00;49.10;;;;;;6279067;28;20072;-79
2021/03/24 10:28:50;;;;;;;11.25;8.90;;;16.10;49.10;;;;;;6280649;28;20085;-80
2021/03/24 10:31:57;;;;;;;12.00;8.40;;;16.30;48.80;;;;;;6280916;28;20503;-80
2021/03/24 10:35:06;;;;;;;11.88;9.32;;;16.40;48.30;;;;;;6279966;28;20056;-77
2021/03/24 10:38:26;;;;;;;12.45;8.05;;;16.30;48.30;;;;;;6280206;28;20132;-80
2021/03/24 10:41:50;;;;;;;12.13;8.55;;;16.40;48.20;;;;;;6281757;28;20081;-79
2021/03/24 10:44:56;;;;;;;10.80;9.32;;;16.60;47.80;;;;;;6280357;28;20080;-79
2021/03/24 10:48:07;;;;;;;14.88;9.88;;;16.70;47.10;;;;;;6279380;28;20112;-80
2021/03/24 10:51:13;;;;;;;14.35;9.75;;;16.70;47.30;;;;;;6279837;28;20052;-79
2021/03/24 10:54:18;;;;;;;13.45;8.98;;;17.00;47.30;;;;;;6278750;28;20490;-79
2021/03/24 10:57:35;;;;;;;12.00;10.02;;;17.20;46.90;;;;;;6278278;28;20583;-80
2021/03/24 11:00:42;;;;;;;12.05;9.57;;;17.30;46.70;;;;;;6277725;28;20279;-79
2021/03/24 11:04:06;;;;;;;17.08;9.85;;;17.50;46.00;;;;;;6275949;28;20687;-77
2021/03/24 11:07:13;;;;;;;13.13;9.20;;;17.80;45.60;;;;;;6274353;28;20088;-80
2021/03/24 11:10:36;;;;;;;10.20;7.82;;;17.80;44.40;;;;;;6275390;28;20053;-80
2021/03/24 11:13:41;;;;;;;10.10;8.25;;;17.70;44.20;;;;;;6276537;28;20522;-79
2021/03/24 11:16:46;;;;;;;10.98;9.10;;;17.70;45.00;;;;;;6281497;28;20072;-79
2021/03/24 11:19:58;;;;;;;10.70;8.63;;;17.80;47.20;;;;;;6276471;28;20050;-80
2021/03/24 11:23:04;;;;;;;12.25;8.30;;;17.90;47.80;;;;;;6283080;28;20069;-79
2021/03/24 11:26:37;;;;;;;15.45;11.25;;;18.10;45.00;;;;;;6291122;28;20063;-79
2021/03/24 11:29:48;;;;;;;11.27;8.93;;;18.10;44.80;;;;;;6294500;28;20045;-79
2021/03/24 11:33:05;;;;;;;12.90;8.57;;;18.10;43.50;;;;;;6293206;28;20562;-79
2021/03/24 11:36:17;;;;;;;15.68;8.85;;;18.20;43.80;;;;;;6287285;28;20052;-79
2021/03/24 11:39:27;;;;;;;14.38;9.98;;;18.30;44.70;;;;;;6284060;28;20124;-79
2021/03/24 11:42:28;;;;;;;11.23;8.75;;;18.50;43.50;;;;;;6281542;28;20103;-79
2021/03/24 11:45:31;;;;;;;12.68;9.10;;;18.60;45.10;;;;;;6279718;28;20094;-79
2021/03/24 11:48:48;;;;;;;11.30;9.70;;;18.80;43.50;;;;;;6277284;28;20139;-79
2021/03/24 11:52:22;;;;;;;11.65;8.77;;;18.80;42.80;;;;;;6277280;28;20462;-78
2021/03/24 11:55:36;;;;;;;9.90;8.05;;;18.80;42.80;;;;;;6275945;28;20045;-78
2021/03/24 11:58:54;;;;;;;12.93;9.25;;;18.90;42.70;;;;;;6274984;28;20053;-79
2021/03/24 12:02:05;;;;;;;16.95;9.15;;;18.90;42.50;;;;;;6278576;28;20128;-79
2021/03/24 12:05:16;;;;;;;10.07;7.68;;;18.80;42.60;;;;;;6276340;28;20127;-78
2021/03/24 12:08:42;;;;;;;9.85;7.03;;;18.80;44.10;;;;;;6279463;28;20051;-79
2021/03/24 12:11:44;;;;;;;11.88;9.05;;;18.70;44.00;;;;;;6279249;28;20041;-79
2021/03/24 12:14:48;;;;;;;15.15;9.80;;;18.80;43.30;;;;;;6280662;28;20049;-79
2021/03/24 12:17:49;;;;;;;11.20;8.68;;;18.90;43.00;;;;;;6281049;28;20063;-79
2021/03/24 12:20:55;;;;;;;14.60;9.48;;;19.00;42.30;;;;;;6277281;28;20075;-78
2021/03/24 12:24:00;;;;;;;13.52;8.63;;;19.10;42.10;;;;;;6278569;28;20067;-78
2021/03/24 12:27:17;;;;;;;12.48;9.48;;;19.00;42.00;;;;;;6281308;28;20079;-78
2021/03/24 12:30:29;;;;;;;13.05;9.32;;;19.10;42.50;;;;;;6276392;28;20148;-78
2021/03/24 12:33:32;;;;;;;14.18;8.07;;;19.10;42.30;;;;;;6277014;28;20529;-78
2021/03/24 12:36:33;;;;;;;10.70;8.10;;;19.10;43.20;;;;;;6279097;28;20072;-79
2021/03/24 12:39:39;;;;;;;11.80;9.13;;;19.10;42.70;;;;;;6281794;28;20083;-79
2021/03/24 12:42:41;;;;;;;15.35;9.02;;;19.10;42.40;;;;;;6278718;28;20041;-79
2021/03/24 12:45:43;;;;;;;15.27;9.68;;;19.10;41.10;;;;;;6278117;28;20072;-79
2021/03/24 12:48:50;;;;;;;13.27;8.98;;;19.10;40.10;;;;;;6282807;28;20052;-78
2021/03/24 12:52:01;;;;;;;15.67;10.80;;;19.10;40.30;;;;;;6277916;28;20065;-79
2021/03/24 12:55:05;;;;;;;10.77;7.75;;;19.20;39.90;;;;;;6281206;28;20569;-78
2021/03/24 12:58:38;;;;;;;16.73;11.07;;;19.20;39.70;;;;;;6279193;28;20048;-80
2021/03/24 13:01:46;;;;;;;15.60;9.63;;;19.30;40.20;;;;;;6276684;28;20129;-79
2021/03/24 13:04:57;;;;;;;;;;;19.40;40.20;;;;;;6275278;28;20175;-76
2021/03/24 13:08:10;;;;;;;13.52;8.20;;;19.50;41.10;;;;;;6279026;28;20055;-79
2021/03/24 13:11:23;;;;;;;15.55;9.55;;;19.50;39.50;;;;;;6289795;28;20441;-79
2021/03/24 13:14:45;;;;;;;11.10;8.35;;;19.50;40.00;;;;;;6285798;28;20044;-77
2021/03/24 13:18:01;;;;;;;12.05;8.40;;;19.50;39.80;;;;;;6280878;28;20128;-78
2021/03/24 13:21:29;;;;;;;13.05;8.68;;;19.40;40.60;;;;;;6293714;28;20123;-75
2021/03/24 13:24:40;;;;;;;17.88;9.00;;;19.40;40.30;;;;;;6302143;28;20064;-78
2021/03/24 13:28:14;;;;;;;14.60;9.15;;;19.40;40.30;;;;;;6304057;28;20044;-76
2021/03/24 13:31:23;;;;;;;10.77;8.38;;;19.50;39.60;;;;;;6302695;28;20056;-75
2021/03/24 13:34:41;;;;;;;14.00;8.30;;;19.40;39.20;;;;;;6304531;28;20040;-77
2021/03/24 13:37:43;;;;;;;8.95;7.53;;;19.50;39.40;;;;;;6301723;28;20049;-77
2021/03/24 13:40:44;;;;;;;12.20;7.57;;;19.40;39.80;;;;;;6281315;28;20049;-76
2021/03/24 13:43:53;;;;;;;11.60;7.80;;;19.40;39.90;;;;;;6275371;28;20129;-78
2021/03/24 13:47:00;;;;;;;10.70;7.25;;;19.30;39.70;;;;;;6274359;28;20076;-77
2021/03/24 13:50:14;;;;;;;10.47;6.27;;;19.30;39.40;;;;;;6275267;28;20518;-78
2021/03/24 13:53:25;;;;;;;11.00;9.68;;;19.30;41.10;;;;;;6274328;28;20047;-78
2021/03/24 13:56:34;;;;;;;12.13;9.00;;;19.30;39.80;;;;;;6274406;28;20148;-78
2021/03/24 13:59:39;;;;;;;16.02;11.98;;;19.30;40.20;;;;;;6273802;28;20137;-78
2021/03/24 14:02:54;;;;;;;16.70;13.05;;;19.30;38.90;;;;;;6274199;28;20394;-78
2021/03/24 14:06:04;;;;;;;50.40;32.33;;;19.40;38.90;;;;;;6274441;28;20072;-78
2021/03/24 14:09:13;;;;;;;37.88;31.40;;;19.40;39.80;;;;;;6274424;28;20081;-78
2021/03/24 14:12:34;;;;;;;31.42;24.42;;;19.50;37.90;;;;;;6273841;28;20122;-78
2021/03/24 14:15:51;;;;;;;15.38;8.63;;;19.40;37.80;;;;;;6273874;28;20053;-78
2021/03/24 14:19:01;;;;;;;13.35;11.32;;;19.40;38.80;;;;;;6272970;28;20068;-76
2021/03/24 14:22:16;;;;;;;13.07;11.52;;;19.40;38.40;;;;;;6274020;28;20044;-78
2021/03/24 14:25:25;;;;;;;12.25;9.20;;;19.50;37.90;;;;;;6274104;28;20482;-78
2021/03/24 14:28:38;;;;;;;14.60;7.28;;;19.50;37.40;;;;;;6275288;28;20061;-78
2021/03/24 14:31:45;;;;;;;16.80;13.48;;;19.50;37.40;;;;;;6279858;28;20049;-77
2021/03/24 14:35:09;;;;;;;55.53;50.25;;;19.40;37.90;;;;;;6277861;28;20055;-78
2021/03/24 14:38:41;;;;;;;9.60;6.00;;;19.60;38.40;;;;;;6278928;28;20598;-78
2021/03/24 14:41:51;;;;;;;11.27;7.15;;;19.70;38.50;;;;;;6227876;28;20582;-78
2021/03/24 14:45:29;;;;;;;11.68;7.03;;;19.60;37.40;;;;;;6285609;28;20041;-78
2021/03/24 14:48:48;;;;;;;9.20;6.15;;;19.50;38.20;;;;;;6284923;28;20084;-78
2021/03/24 14:51:49;;;;;;;;;;;19.40;38.30;;;;;;6283396;28;20048;-78
2021/03/24 14:54:51;;;;;;;7.05;5.57;;;19.40;39.40;;;;;;6283954;28;19963;-78
2021/03/24 14:57:53;;;;;;;13.40;5.57;;;19.50;39.20;;;;;;6282371;28;20132;-78
2021/03/24 15:01:07;;;;;;;9.32;5.93;;;19.60;37.70;;;;;;6283811;28;20108;-78
2021/03/24 15:04:31;;;;;;;10.52;5.47;;;19.60;37.60;;;;;;6283280;28;20075;-78
2021/03/24 15:07:37;;;;;;;8.40;5.72;;;19.60;36.60;;;;;;6284224;28;20053;-78
2021/03/24 15:10:51;;;;;;;8.15;5.68;;;19.50;36.80;;;;;;6284960;28;20490;-79
2021/03/24 15:14:05;;;;;;;6.70;5.22;;;19.50;36.20;;;;;;6286061;28;20069;-78
2021/03/24 15:17:36;;;;;;;7.10;4.82;;;19.40;35.80;;;;;;6286259;28;20691;-78
2021/03/24 15:20:41;;;;;;;8.48;5.20;;;19.20;36.70;;;;;;6284935;28;20051;-78
2021/03/24 15:23:51;;;;;;;5.90;4.75;;;18.80;37.90;;;;;;6286813;28;20099;-78
2021/03/24 15:26:58;;;;;;;8.23;6.15;;;18.60;37.70;;;;;;6285807;28;20049;-78
2021/03/24 15:30:05;;;;;;;8.05;5.93;;;18.40;38.50;;;;;;6283828;28;20060;-78
2021/03/24 15:33:15;;;;;;;7.90;4.65;;;18.20;38.30;;;;;;6285558;28;20048;-78
2021/03/24 15:36:38;;;;;;;9.00;5.95;;;17.90;38.80;;;;;;6282467;28;20068;-79
2021/03/24 15:39:49;;;;;;;9.43;6.60;;;17.70;38.70;;;;;;6281800;28;20084;-79
2021/03/24 15:42:54;;;;;;;8.07;5.38;;;17.40;40.00;;;;;;6284424;28;20067;-79
2021/03/24 15:45:57;;;;;;;6.70;4.60;;;17.20;40.00;;;;;;6281789;28;20079;-78
2021/03/24 15:49:03;;;;;;;6.13;4.60;;;16.90;39.90;;;;;;6280390;28;20060;-79
2021/03/24 15:52:12;;;;;;;6.43;4.35;;;16.70;40.30;;;;;;6283605;28;20533;-79
2021/03/24 15:55:28;;;;;;;5.80;4.63;;;16.50;40.80;;;;;;6277599;28;20047;-79
2021/03/24 15:58:49;;;;;;;6.55;3.97;;;16.30;40.90;;;;;;6278100;28;20048;-79
2021/03/24 16:02:00;;;;;;;6.75;3.92;;;16.10;41.20;;;;;;6280791;28;20049;-79
2021/03/24 16:05:18;;;;;;;29.77;26.75;;;15.90;40.80;;;;;;6276951;28;20083;-79
2021/03/24 16:08:32;;;;;;;25.23;22.63;;;15.90;40.60;;;;;;6277783;28;20045;-79
2021/03/24 16:12:03;;;;;;;10.23;5.50;;;15.70;41.30;;;;;;6278112;28;20084;-78
2021/03/24 16:15:15;;;;;;;6.90;3.80;;;15.60;41.40;;;;;;6270434;28;20080;-79
2021/03/24 16:18:24;;;;;;;4.25;3.67;;;15.40;41.40;;;;;;6278525;28;20110;-79
2021/03/24 16:21:33;;;;;;;8.02;3.58;;;15.40;41.70;;;;;;6278457;28;20540;-79
2021/03/24 16:24:44;;;;;;;7.60;3.88;;;15.30;42.00;;;;;;6278710;28;20045;-78